createdAt,value
2023-04-18T00:00:32.221Z,7.17
2023-04-18T00:03:15.903Z,7.22
2023-04-18T00:05:47.488Z,7.29
2023-04-18T00:08:15.286Z,7.34
2023-04-18T00:10:42.908Z,7.36
2023-04-18T00:13:10.610Z,7.39
2023-04-18T00:15:38.209Z,7.41
2023-04-18T00:18:06.216Z,7.44
2023-04-18T00:20:34.205Z,7.48
2023-04-18T00:23:01.778Z,7.51
2023-04-18T00:25:29.508Z,7.54
2023-04-18T00:27:57.981Z,7.59
2023-04-18T00:30:26.995Z,7.62
2023-04-18T00:32:54.732Z,7.64
2023-04-18T00:35:22.481Z,7.66
2023-04-18T00:37:50.147Z,7.66
2023-04-18T00:40:17.891Z,7.69
2023-04-18T00:42:45.484Z,7.71
2023-04-18T00:45:15.035Z,7.75
2023-04-18T00:47:42.920Z,7.78
2023-04-18T00:50:11.165Z,7.81
2023-04-18T00:52:38.924Z,7.84
2023-04-18T00:55:08.074Z,7.86
2023-04-18T00:57:36.430Z,7.87
2023-04-18T01:00:10.355Z,7.86
2023-04-18T01:02:39.889Z,7.86
2023-04-18T01:05:08.767Z,7.87
2023-04-18T01:07:40.709Z,7.87
2023-04-18T01:10:10.246Z,7.87
2023-04-18T01:12:38.188Z,7.87
2023-04-18T01:15:06.489Z,7.87
2023-04-18T01:17:35.826Z,7.86
2023-04-18T01:20:06.291Z,7.86
2023-04-18T01:22:34.184Z,7.84
2023-04-18T01:25:06.301Z,7.82
2023-04-18T01:27:33.912Z,7.78
2023-04-18T01:30:01.667Z,7.75
2023-04-18T01:32:30.771Z,7.72
2023-04-18T01:34:58.402Z,7.69
2023-04-18T01:37:27.501Z,7.65
2023-04-18T01:39:55.374Z,7.63
2023-04-18T01:42:23.108Z,7.59
2023-04-18T01:44:50.690Z,7.58
2023-04-18T01:47:18.475Z,7.55
2023-04-18T01:49:48.181Z,7.53
2023-04-18T01:52:17.283Z,7.53
2023-04-18T01:54:44.780Z,7.53
2023-04-18T01:57:13.396Z,7.51
2023-04-18T01:59:41.184Z,7.50
2023-04-18T02:02:08.935Z,7.49
2023-04-18T02:04:36.902Z,7.47
2023-04-18T02:07:04.963Z,7.44
2023-04-18T02:09:32.826Z,7.43
2023-04-18T02:12:02.441Z,7.42
2023-04-18T02:14:31.156Z,7.40
2023-04-18T02:17:01.406Z,7.37
2023-04-18T02:19:29.727Z,7.34
2023-04-18T02:21:57.415Z,7.31
2023-04-18T02:24:25.075Z,7.28
2023-04-18T02:26:52.763Z,7.28
2023-04-18T02:29:20.609Z,7.28
2023-04-18T02:31:48.268Z,7.28
2023-04-18T02:34:16.337Z,7.29
2023-04-18T02:36:44.175Z,7.29
2023-04-18T02:39:11.984Z,7.29
2023-04-18T02:41:39.706Z,7.27
2023-04-18T02:44:08.455Z,7.25
2023-04-18T02:46:38.539Z,7.25
2023-04-18T02:49:08.765Z,7.26
2023-04-18T02:51:36.478Z,7.26
2023-04-18T02:54:04.080Z,7.25
2023-04-18T02:56:40.244Z,7.26
2023-04-18T02:59:19.258Z,7.27
2023-04-18T03:02:10.337Z,7.29
2023-04-18T03:04:41.102Z,7.29
2023-04-18T03:07:10.317Z,7.31
2023-04-18T03:09:39.220Z,7.34
2023-04-18T03:12:15.409Z,7.37
2023-04-18T03:14:44.538Z,7.39
2023-04-18T03:17:13.151Z,7.41
2023-04-18T03:19:42.472Z,7.41
2023-04-18T03:22:12.648Z,7.41
2023-04-18T03:24:45.979Z,7.41
2023-04-18T03:27:14.580Z,7.42
2023-04-18T03:29:43.220Z,7.43
2023-04-18T03:32:11.346Z,7.44
2023-04-18T03:34:38.995Z,7.44
2023-04-18T03:37:08.423Z,7.45
2023-04-18T03:39:40.392Z,7.45
2023-04-18T03:42:08.664Z,7.45
2023-04-18T03:44:36.713Z,7.45
2023-04-18T03:47:04.599Z,7.45
2023-04-18T03:49:32.907Z,7.45
2023-04-18T03:52:00.698Z,7.45
2023-04-18T03:54:28.587Z,7.45
2023-04-18T03:56:57.591Z,7.45
2023-04-18T03:59:26.377Z,7.44
2023-04-18T04:01:54.271Z,7.44
2023-04-18T04:04:22.906Z,7.43
2023-04-18T04:06:51.314Z,7.43
2023-04-18T04:09:19.084Z,7.42
2023-04-18T04:11:46.969Z,7.45
2023-04-18T04:14:15.385Z,7.47
2023-04-18T04:16:45.906Z,7.48
2023-04-18T04:19:15.955Z,7.51
2023-04-18T04:21:53.183Z,7.53
2023-04-18T04:24:22.705Z,7.55
2023-04-18T04:26:51.355Z,7.56
2023-04-18T04:29:21.591Z,7.59
2023-04-18T04:31:49.697Z,7.63
2023-04-18T04:34:25.009Z,7.66
2023-04-18T04:36:54.024Z,7.67
2023-04-18T04:39:23.874Z,7.72
2023-04-18T04:42:07.584Z,7.75
2023-04-18T04:44:42.691Z,7.81
2023-04-18T04:47:10.769Z,7.85
2023-04-18T04:49:39.524Z,7.89
2023-04-18T04:52:07.143Z,7.95
2023-04-18T04:54:35.433Z,8.01
2023-04-18T04:57:05.340Z,8.07
2023-04-18T04:59:33.307Z,8.16
2023-04-18T05:02:02.050Z,8.23
2023-04-18T05:04:34.209Z,8.28
2023-04-18T05:07:02.189Z,8.34
2023-04-18T05:09:29.905Z,8.41
2023-04-18T05:11:57.538Z,8.46
2023-04-18T05:14:26.324Z,8.52
2023-04-18T05:16:55.243Z,8.60
2023-04-18T05:19:23.079Z,8.69
2023-04-18T05:21:50.931Z,8.79
2023-04-18T05:24:18.886Z,8.88
2023-04-18T05:26:46.603Z,8.94
2023-04-18T05:29:14.309Z,9.00
2023-04-18T05:31:42.616Z,9.04
2023-04-18T05:34:10.487Z,9.10
2023-04-18T05:36:38.128Z,9.18
2023-04-18T05:39:05.778Z,9.23
2023-04-18T05:41:33.406Z,9.31
2023-04-18T05:44:05.797Z,9.39
2023-04-18T05:46:33.886Z,9.44
2023-04-18T05:49:07.025Z,9.49
2023-04-18T05:51:41.962Z,9.51
2023-04-18T05:54:09.806Z,9.55
2023-04-18T05:56:37.768Z,9.60
2023-04-18T05:59:05.652Z,9.66
2023-04-18T06:01:44.466Z,9.74
2023-04-18T06:04:15.636Z,9.82
2023-04-18T06:06:48.188Z,9.87
2023-04-18T06:09:15.916Z,9.91
2023-04-18T06:11:43.500Z,9.95
2023-04-18T06:14:11.543Z,10.03
2023-04-18T06:16:39.616Z,10.11
2023-04-18T06:19:07.484Z,10.18
2023-04-18T06:21:35.160Z,10.27
2023-04-18T06:24:02.806Z,10.40
2023-04-18T06:26:31.882Z,10.52
2023-04-18T06:28:59.533Z,10.64
2023-04-18T06:31:27.210Z,10.70
2023-04-18T06:33:54.826Z,10.78
2023-04-18T06:36:22.679Z,10.83
2023-04-18T06:38:50.403Z,10.87
2023-04-18T06:41:18.276Z,10.91
2023-04-18T06:43:59.812Z,10.94
2023-04-18T06:46:30.463Z,11.01
2023-04-18T06:48:58.389Z,11.09
2023-04-18T06:51:26.740Z,11.17
2023-04-18T06:53:54.315Z,11.25
2023-04-18T06:56:22.415Z,11.29
2023-04-18T06:58:50.061Z,11.34
2023-04-18T07:01:22.279Z,11.38
2023-04-18T07:03:50.419Z,11.43
2023-04-18T07:06:19.890Z,11.48
2023-04-18T07:08:47.641Z,11.53
2023-04-18T07:11:18.267Z,11.61
2023-04-18T07:13:48.180Z,11.71
2023-04-18T07:16:15.927Z,11.79
2023-04-18T07:18:43.550Z,11.85
2023-04-18T07:21:11.239Z,11.92
2023-04-18T07:23:38.829Z,11.97
2023-04-18T07:26:06.558Z,12.04
2023-04-18T07:28:34.323Z,12.11
2023-04-18T07:31:03.550Z,12.21
2023-04-18T07:33:33.538Z,12.34
2023-04-18T07:36:01.605Z,12.43
2023-04-18T07:38:29.228Z,12.55
2023-04-18T07:41:00.997Z,12.67
2023-04-18T07:43:28.639Z,12.78
2023-04-18T07:45:56.378Z,12.89
2023-04-18T07:48:25.201Z,12.99
2023-04-18T07:50:53.257Z,13.08
2023-04-18T07:53:21.077Z,13.21
2023-04-18T07:55:49.923Z,13.34
2023-04-18T07:58:17.617Z,13.48
2023-04-18T08:00:45.251Z,13.62
2023-04-18T08:03:13.719Z,13.74
2023-04-18T08:05:42.791Z,13.82
2023-04-18T08:08:11.563Z,13.88
2023-04-18T08:10:39.334Z,13.97
2023-04-18T08:13:07.056Z,14.07
2023-04-18T08:15:34.709Z,14.11
2023-04-18T08:18:02.903Z,14.16
2023-04-18T08:20:30.727Z,14.24
2023-04-18T08:23:07.972Z,14.28
2023-04-18T08:25:37.492Z,14.31
2023-04-18T08:28:05.277Z,14.35
2023-04-18T08:30:32.898Z,14.43
2023-04-18T08:33:00.965Z,14.49
2023-04-18T08:35:28.690Z,14.53
2023-04-18T08:37:56.536Z,14.60
2023-04-18T08:40:25.464Z,14.71
2023-04-18T08:42:53.805Z,14.77
2023-04-18T08:45:21.525Z,14.79
2023-04-18T08:47:49.253Z,14.78
2023-04-18T08:50:17.132Z,14.77
2023-04-18T08:52:45.745Z,14.80
2023-04-18T08:55:13.442Z,14.82
2023-04-18T08:57:41.128Z,14.85
2023-04-18T09:00:11.289Z,14.84
2023-04-18T09:02:42.790Z,14.85
2023-04-18T09:05:16.238Z,14.91
2023-04-18T09:07:43.956Z,14.99
2023-04-18T09:10:12.475Z,15.09
2023-04-18T09:12:42.319Z,15.24
2023-04-18T09:15:12.227Z,15.38
2023-04-18T09:17:45.491Z,15.51
2023-04-18T09:20:15.523Z,15.56
2023-04-18T09:22:46.087Z,15.61
2023-04-18T09:25:29.650Z,15.63
2023-04-18T09:28:00.567Z,15.65
2023-04-18T09:30:32.706Z,15.65
2023-04-18T09:33:01.320Z,15.70
2023-04-18T09:35:29.073Z,15.81
2023-04-18T09:37:56.880Z,15.89
2023-04-18T09:40:24.883Z,15.97
2023-04-18T09:42:56.332Z,16.04
2023-04-18T09:45:24.758Z,16.07
2023-04-18T09:47:53.138Z,16.15
2023-04-18T09:50:20.908Z,16.24
2023-04-18T09:52:48.686Z,16.27
2023-04-18T09:55:18.289Z,16.30
2023-04-18T09:57:47.509Z,16.34
2023-04-18T10:00:20.249Z,16.38
2023-04-18T10:02:50.384Z,16.48
2023-04-18T10:05:20.947Z,16.59
2023-04-18T10:07:53.165Z,16.76
2023-04-18T10:10:24.854Z,16.93
2023-04-18T10:13:00.306Z,17.00
2023-04-18T10:15:28.786Z,17.04
2023-04-18T10:18:05.629Z,17.13
2023-04-18T10:20:35.253Z,17.19
2023-04-18T10:23:19.136Z,17.28
2023-04-18T10:25:47.323Z,17.32
2023-04-18T10:28:15.521Z,17.42
2023-04-18T10:30:44.292Z,17.46
2023-04-18T10:33:31.901Z,17.55
2023-04-18T10:36:01.438Z,17.65
2023-04-18T10:38:29.136Z,17.66
2023-04-18T10:41:12.720Z,17.73
2023-04-18T10:43:56.270Z,17.88
2023-04-18T10:46:31.719Z,18.08
2023-04-18T10:49:16.896Z,18.19
2023-04-18T10:51:46.498Z,18.20
2023-04-18T10:54:40.572Z,18.23
2023-04-18T10:57:10.205Z,18.21
2023-04-18T10:59:38.869Z,18.28
2023-04-18T11:02:12.752Z,18.30
2023-04-18T11:04:41.149Z,18.30
2023-04-18T11:07:08.838Z,18.31
2023-04-18T11:09:38.543Z,18.35
2023-04-18T11:12:10.478Z,18.36
2023-04-18T11:14:41.266Z,18.38
2023-04-18T11:17:40.015Z,18.46
2023-04-18T11:20:15.842Z,18.64
2023-04-18T11:22:47.814Z,18.73
2023-04-18T11:25:20.182Z,18.73
2023-04-18T11:27:51.487Z,18.74
2023-04-18T11:30:20.525Z,18.78
2023-04-18T11:32:48.536Z,18.80
2023-04-18T11:35:16.483Z,18.77
2023-04-18T11:37:49.970Z,18.76
2023-04-18T11:40:18.114Z,18.77
2023-04-18T11:42:45.983Z,18.82
2023-04-18T11:45:15.037Z,18.76
2023-04-18T11:47:43.498Z,18.67
2023-04-18T11:50:12.798Z,18.55
2023-04-18T11:52:41.363Z,18.49
2023-04-18T11:55:13.673Z,18.41
2023-04-18T11:57:41.862Z,18.35
2023-04-18T12:00:12.053Z,18.32
2023-04-18T12:02:39.748Z,18.26
2023-04-18T12:05:08.344Z,18.27
2023-04-18T12:07:40.387Z,18.35
2023-04-18T12:10:28.414Z,18.47
2023-04-18T12:13:00.003Z,18.57
2023-04-18T12:15:28.696Z,18.63
2023-04-18T12:18:00.868Z,18.61
2023-04-18T12:20:46.060Z,18.67
2023-04-18T12:23:30.687Z,18.71
2023-04-18T12:26:03.778Z,18.78
2023-04-18T12:28:31.942Z,18.84
2023-04-18T12:30:59.723Z,18.89
2023-04-18T12:33:27.749Z,18.96
2023-04-18T12:35:55.957Z,18.97
2023-04-18T12:38:23.837Z,18.91
2023-04-18T12:40:52.155Z,18.85
2023-04-18T12:43:19.796Z,18.86
2023-04-18T12:45:47.488Z,18.86
2023-04-18T12:48:19.353Z,18.99
2023-04-18T12:50:47.211Z,19.27
2023-04-18T12:53:14.813Z,19.60
2023-04-18T12:55:42.503Z,20.01
2023-04-18T12:58:10.201Z,20.78
2023-04-18T13:00:37.853Z,21.06
2023-04-18T13:03:05.764Z,21.00
2023-04-18T13:05:34.360Z,20.82
2023-04-18T13:08:15.148Z,20.60
2023-04-18T13:10:43.760Z,20.31
2023-04-18T13:13:11.563Z,19.96
2023-04-18T13:15:39.444Z,19.65
2023-04-18T13:18:12.115Z,19.41
2023-04-18T13:20:42.175Z,19.19
2023-04-18T13:23:09.800Z,18.97
2023-04-18T13:25:37.471Z,18.93
2023-04-18T13:28:05.552Z,19.01
2023-04-18T13:30:36.731Z,19.04
2023-04-18T13:33:04.446Z,18.98
2023-04-18T13:35:32.159Z,18.88
2023-04-18T13:37:59.898Z,18.77
2023-04-18T13:40:27.559Z,18.71
2023-04-18T13:42:55.206Z,18.71
2023-04-18T13:45:22.974Z,18.75
2023-04-18T13:47:50.888Z,18.72
2023-04-18T13:50:18.906Z,18.82
2023-04-18T13:52:48.626Z,19.89
2023-04-18T13:55:16.405Z,21.97
2023-04-18T13:57:44.088Z,23.66
2023-04-18T14:00:14.065Z,23.68
2023-04-18T14:02:42.091Z,22.48
2023-04-18T14:05:10.585Z,21.23
2023-04-18T14:07:38.512Z,20.26
2023-04-18T14:10:06.857Z,19.52
2023-04-18T14:12:34.596Z,18.86
2023-04-18T14:15:02.347Z,18.28
2023-04-18T14:17:30.991Z,17.75
2023-04-18T14:19:58.654Z,17.35
2023-04-18T14:22:26.934Z,17.08
2023-04-18T14:24:56.130Z,16.89
2023-04-18T14:27:25.947Z,16.70
2023-04-18T14:29:53.611Z,16.56
2023-04-18T14:32:21.244Z,16.45
2023-04-18T14:34:48.931Z,16.37
2023-04-18T14:37:17.743Z,16.40
2023-04-18T14:39:46.101Z,16.63
2023-04-18T14:42:13.735Z,16.92
2023-04-18T14:44:41.402Z,17.09
2023-04-18T14:47:09.450Z,17.79
2023-04-18T14:49:37.230Z,17.94
2023-04-18T14:52:05.026Z,17.59
2023-04-18T14:54:32.943Z,17.44
2023-04-18T14:57:01.366Z,18.07
2023-04-18T14:59:29.038Z,18.03
2023-04-18T15:01:56.783Z,18.14
2023-04-18T15:04:24.670Z,18.21
2023-04-18T15:06:52.484Z,18.17
2023-04-18T15:09:20.841Z,18.71
2023-04-18T15:11:48.492Z,18.64
2023-04-18T15:14:16.641Z,18.33
2023-04-18T15:16:44.624Z,17.87
2023-04-18T15:19:12.330Z,17.35
2023-04-18T15:21:40.035Z,16.93
2023-04-18T15:24:08.118Z,16.63
2023-04-18T15:26:36.208Z,16.43
2023-04-18T15:29:03.972Z,16.68
2023-04-18T15:31:32.385Z,17.12
2023-04-18T15:34:00.210Z,17.38
2023-04-18T15:36:28.690Z,17.54
2023-04-18T15:38:56.311Z,18.03
2023-04-18T15:41:23.984Z,18.55
2023-04-18T15:43:52.392Z,19.11
2023-04-18T15:46:20.270Z,19.39
2023-04-18T15:48:48.350Z,18.98
2023-04-18T15:51:16.050Z,18.34
2023-04-18T15:53:43.867Z,17.79
2023-04-18T15:56:11.897Z,17.26
2023-04-18T15:58:39.604Z,16.90
2023-04-18T16:01:07.699Z,16.72
2023-04-18T16:03:36.102Z,17.01
2023-04-18T16:06:04.575Z,17.29
2023-04-18T16:08:33.468Z,17.17
2023-04-18T16:11:01.249Z,16.90
2023-04-18T16:13:28.890Z,16.50
2023-04-18T16:15:56.623Z,16.15
2023-04-18T16:18:24.420Z,15.82
2023-04-18T16:20:52.068Z,15.46
2023-04-18T16:23:20.472Z,15.16
2023-04-18T16:25:48.475Z,14.83
2023-04-18T16:28:16.161Z,14.62
2023-04-18T16:30:45.615Z,14.65
2023-04-18T16:33:13.557Z,14.89
2023-04-18T16:35:41.622Z,15.06
2023-04-18T16:38:09.220Z,15.10
2023-04-18T16:40:37.889Z,14.88
2023-04-18T16:43:05.586Z,14.55
2023-04-18T16:45:33.299Z,14.23
2023-04-18T16:48:01.064Z,13.94
2023-04-18T16:50:28.832Z,13.71
2023-04-18T16:52:56.496Z,13.47
2023-04-18T16:55:24.203Z,13.27
2023-04-18T16:57:51.813Z,13.09
2023-04-18T17:00:19.484Z,12.93
2023-04-18T17:02:48.193Z,12.78
2023-04-18T17:05:16.016Z,12.62
2023-04-18T17:07:44.925Z,12.50
2023-04-18T17:10:12.625Z,12.40
2023-04-18T17:12:40.481Z,12.27
2023-04-18T17:15:08.176Z,12.17
2023-04-18T17:17:35.889Z,12.09
2023-04-18T17:20:06.994Z,12.01
2023-04-18T17:22:34.825Z,11.93
2023-04-18T17:25:03.010Z,11.86
2023-04-18T17:27:30.674Z,11.80
2023-04-18T17:29:58.263Z,11.74
2023-04-18T17:32:25.980Z,11.68
2023-04-18T17:34:54.020Z,11.63
2023-04-18T17:37:22.378Z,11.58
2023-04-18T17:39:50.572Z,11.53
2023-04-18T17:42:19.565Z,11.47
2023-04-18T17:44:47.297Z,11.43
2023-04-18T17:47:15.244Z,11.38
2023-04-18T17:49:42.928Z,11.31
2023-04-18T17:52:10.612Z,11.24
2023-04-18T17:54:38.628Z,11.19
2023-04-18T17:57:06.265Z,11.14
2023-04-18T17:59:37.518Z,11.09
2023-04-18T18:02:05.745Z,11.04
2023-04-18T18:04:33.862Z,11.01
2023-04-18T18:07:01.677Z,10.98
2023-04-18T18:09:29.419Z,10.94
2023-04-18T18:11:58.495Z,10.92
2023-04-18T18:14:26.777Z,10.88
2023-04-18T18:16:54.661Z,10.83
2023-04-18T18:19:22.335Z,10.79
2023-04-18T18:21:50.517Z,10.74
2023-04-18T18:24:18.675Z,10.71
2023-04-18T18:26:46.775Z,10.68
2023-04-18T18:29:14.780Z,10.65
2023-04-18T18:31:42.819Z,10.61
2023-04-18T18:34:10.845Z,10.58
2023-04-18T18:36:38.606Z,10.55
2023-04-18T18:39:06.829Z,10.52
2023-04-18T18:41:35.048Z,10.48
2023-04-18T18:44:02.956Z,10.42
2023-04-18T18:46:31.157Z,10.39
2023-04-18T18:48:59.003Z,10.35
2023-04-18T18:51:27.010Z,10.29
2023-04-18T18:53:56.651Z,10.23
2023-04-18T18:56:24.618Z,10.19
2023-04-18T18:58:54.448Z,10.14
2023-04-18T19:01:22.893Z,10.09
2023-04-18T19:03:50.934Z,10.06
2023-04-18T19:06:18.823Z,10.03
2023-04-18T19:08:46.507Z,9.99
2023-04-18T19:11:15.925Z,9.96
2023-04-18T19:13:43.546Z,9.92
2023-04-18T19:16:11.597Z,9.87
2023-04-18T19:18:40.547Z,9.83
2023-04-18T19:21:08.416Z,9.78
2023-04-18T19:23:36.207Z,9.73
2023-04-18T19:26:03.963Z,9.66
2023-04-18T19:28:31.732Z,9.62
2023-04-18T19:30:59.398Z,9.59
2023-04-18T19:33:27.877Z,9.57
2023-04-18T19:35:55.836Z,9.54
2023-04-18T19:38:23.516Z,9.50
2023-04-18T19:40:51.201Z,9.47
2023-04-18T19:43:18.838Z,9.45
2023-04-18T19:45:46.513Z,9.44
2023-04-18T19:48:14.201Z,9.42
2023-04-18T19:50:42.317Z,9.40
2023-04-18T19:53:10.999Z,9.37
2023-04-18T19:55:38.973Z,9.34
2023-04-18T19:58:06.880Z,9.29
2023-04-18T20:00:34.481Z,9.23
2023-04-18T20:03:02.255Z,9.17
2023-04-18T20:05:30.203Z,9.12
2023-04-18T20:07:58.018Z,9.06
2023-04-18T20:10:25.796Z,9.01
2023-04-18T20:12:53.447Z,8.96
2023-04-18T20:15:22.567Z,8.92
2023-04-18T20:17:50.464Z,8.87
2023-04-18T20:20:18.275Z,8.82
2023-04-18T20:22:47.468Z,8.78
2023-04-18T20:25:15.166Z,8.75
2023-04-18T20:27:42.868Z,8.69
2023-04-18T20:30:10.978Z,8.61
2023-04-18T20:32:38.706Z,8.55
2023-04-18T20:35:07.341Z,8.41
2023-04-18T20:37:36.424Z,8.24
2023-04-18T20:40:05.233Z,8.07
2023-04-18T20:42:32.978Z,7.93
2023-04-18T20:45:00.634Z,7.79
2023-04-18T20:47:28.353Z,7.66
2023-04-18T20:50:00.104Z,7.51
2023-04-18T20:52:28.068Z,7.40
2023-04-18T20:54:55.989Z,7.29
2023-04-18T20:57:23.602Z,7.18
2023-04-18T20:59:51.474Z,7.10
2023-04-18T21:02:19.154Z,7.02
2023-04-18T21:04:46.959Z,6.93
2023-04-18T21:07:14.613Z,6.86
2023-04-18T21:09:42.285Z,6.78
2023-04-18T21:12:09.965Z,6.69
2023-04-18T21:14:37.576Z,6.61
2023-04-18T21:17:05.438Z,6.53
2023-04-18T21:19:33.025Z,6.44
2023-04-18T21:22:00.785Z,6.33
2023-04-18T21:24:28.423Z,6.26
2023-04-18T21:26:56.010Z,6.18
2023-04-18T21:29:23.820Z,6.13
2023-04-18T21:31:51.782Z,6.06
2023-04-18T21:34:20.159Z,5.99
2023-04-18T21:36:47.812Z,5.95
2023-04-18T21:39:15.457Z,5.89
2023-04-18T21:41:44.500Z,5.84
2023-04-18T21:44:12.084Z,5.78
2023-04-18T21:46:39.784Z,5.73
2023-04-18T21:49:07.865Z,5.69
2023-04-18T21:51:35.514Z,5.63
2023-04-18T21:54:03.414Z,5.57
2023-04-18T21:56:31.161Z,5.52
2023-04-18T21:58:58.813Z,5.46
2023-04-18T22:01:26.533Z,5.41
2023-04-18T22:03:54.363Z,5.38
2023-04-18T22:06:23.193Z,5.36
2023-04-18T22:08:51.531Z,5.34
2023-04-18T22:11:19.306Z,5.31
2023-04-18T22:13:47.261Z,5.28
2023-04-18T22:16:15.239Z,5.28
2023-04-18T22:18:42.947Z,5.27
2023-04-18T22:21:10.582Z,5.26
2023-04-18T22:23:38.228Z,5.22
2023-04-18T22:26:05.902Z,5.20
2023-04-18T22:28:33.856Z,5.17
2023-04-18T22:31:01.559Z,5.16
2023-04-18T22:33:29.347Z,5.14
2023-04-18T22:35:57.069Z,5.14
2023-04-18T22:38:25.098Z,5.16
2023-04-18T22:40:52.891Z,5.16
2023-04-18T22:43:23.519Z,5.14
2023-04-18T22:45:51.510Z,5.11
2023-04-18T22:48:19.361Z,5.08
2023-04-18T22:50:47.264Z,5.04
2023-04-18T22:53:15.941Z,4.99
2023-04-18T22:55:44.208Z,4.95
2023-04-18T22:58:12.585Z,4.91
2023-04-18T23:00:40.446Z,4.85
2023-04-18T23:03:08.259Z,4.78
2023-04-18T23:05:36.187Z,4.70
2023-04-18T23:08:04.457Z,4.64
2023-04-18T23:10:32.268Z,4.59
2023-04-18T23:13:00.397Z,4.52
2023-04-18T23:15:28.090Z,4.44
2023-04-18T23:17:55.833Z,4.37
2023-04-18T23:20:24.033Z,4.33
2023-04-18T23:22:52.688Z,4.31
2023-04-18T23:25:20.705Z,4.29
2023-04-18T23:27:48.337Z,4.27
2023-04-18T23:30:16.188Z,4.24
2023-04-18T23:32:43.863Z,4.21
2023-04-18T23:35:11.583Z,4.19
2023-04-18T23:37:39.421Z,4.17
2023-04-18T23:40:07.971Z,4.14
2023-04-18T23:42:35.944Z,4.09
2023-04-18T23:45:04.420Z,4.04
2023-04-18T23:47:32.149Z,3.99
2023-04-18T23:49:59.954Z,3.94
2023-04-18T23:52:28.019Z,3.87
2023-04-18T23:54:58.786Z,3.82
2023-04-18T23:57:26.535Z,3.76
2023-04-18T23:59:54.217Z,3.72
